Time;durP1;ratioP1;P1;durP2;ratioP2;P2;SDS_P1;SDS_P2;PMS_P1;PMS_P2;Temp;Humidity;BMP_temperature;BMP_pressure;BME280_temperature;BME280_humidity;BME280_pressure;Samples;Min_cycle;Max_cycle;Signal;HPM_P1;HPM_P2
2021/10/09 00:01:03;;;;;;;263.00;244.73;;;10.30;99.90;;;;;;5041820;28;20171;-81
2021/10/09 00:03:29;;;;;;;276.13;257.83;;;10.30;99.90;;;;;;5041841;28;20190;-81
2021/10/09 00:05:55;;;;;;;279.27;261.07;;;10.30;99.90;;;;;;5041122;28;20183;-81
2021/10/09 00:08:20;;;;;;;278.73;260.60;;;10.30;99.90;;;;;;5037999;28;20185;-81
2021/10/09 00:10:46;;;;;;;250.00;232.47;;;10.20;99.90;;;;;;5040910;28;20158;-81
2021/10/09 00:13:12;;;;;;;313.17;293.53;;;10.20;99.90;;;;;;5023198;28;20165;-81
2021/10/09 00:15:38;;;;;;;291.63;272.98;;;10.20;99.90;;;;;;5038508;28;20439;-81
2021/10/09 00:18:04;;;;;;;290.00;271.47;;;10.10;99.90;;;;;;5038713;28;20548;-81
2021/10/09 00:20:31;;;;;;;276.97;258.83;;;10.00;99.90;;;;;;5041335;28;20320;-80
2021/10/09 00:22:57;;;;;;;271.75;253.80;;;10.00;99.90;;;;;;5040839;28;20197;-80
2021/10/09 00:25:24;;;;;;;287.15;268.33;;;9.90;99.90;;;;;;5038136;28;20252;-80
2021/10/09 00:27:50;;;;;;;324.52;304.00;;;10.00;99.90;;;;;;5038075;28;20256;-80
2021/10/09 00:30:16;;;;;;;308.43;288.67;;;9.90;99.90;;;;;;5040669;28;20188;-81
2021/10/09 00:32:41;;;;;;;275.20;257.65;;;9.80;99.90;;;;;;5023350;28;20165;-81
2021/10/09 00:35:11;;;;;;;317.50;297.20;;;9.60;99.90;;;;;;5040056;28;20566;-81
2021/10/09 00:37:36;;;;;;;292.05;273.13;;;9.60;99.90;;;;;;5040069;28;20609;-81
2021/10/09 00:40:05;;;;;;;314.97;295.73;;;9.70;99.90;;;;;;5037752;28;20268;-80
2021/10/09 00:42:30;;;;;;;279.65;260.73;;;9.60;99.90;;;;;;5038008;28;20412;-81
2021/10/09 00:44:56;;;;;;;323.17;303.53;;;9.50;99.90;;;;;;5037320;28;20165;-80
2021/10/09 00:47:23;;;;;;;304.03;284.87;;;9.40;99.90;;;;;;5019891;28;20185;-80
2021/10/09 00:49:49;;;;;;;289.45;270.88;;;9.40;99.90;;;;;;5037898;28;20207;-81
2021/10/09 00:52:15;;;;;;;252.37;235.37;;;9.40;99.90;;;;;;5041023;28;20169;-82
2021/10/09 00:54:48;;;;;;;245.47;228.60;;;9.30;99.90;;;;;;5021872;28;20175;-81
2021/10/09 00:57:19;;;;;;;257.70;240.27;;;9.20;99.90;;;;;;5040168;28;20435;-81
2021/10/09 00:59:46;;;;;;;254.20;236.45;;;9.20;99.90;;;;;;5037788;28;20565;-80
2021/10/09 01:04:39;;;;;;;265.23;247.10;;;9.10;99.90;;;;;;5140769;23;20258;-82
2021/10/09 01:07:06;;;;;;;284.80;266.55;;;9.10;99.90;;;;;;5058544;28;20181;-83
2021/10/09 01:09:32;;;;;;;310.38;291.38;;;9.10;99.90;;;;;;5059387;28;20191;-82
2021/10/09 01:11:59;;;;;;;294.38;274.70;;;9.00;99.90;;;;;;5058911;28;20157;-82
2021/10/09 01:14:25;;;;;;;325.48;305.40;;;9.00;99.90;;;;;;5058425;28;20165;-82
2021/10/09 01:16:50;;;;;;;331.90;311.23;;;8.90;99.90;;;;;;5058972;28;20156;-82
2021/10/09 01:19:16;;;;;;;263.83;246.33;;;8.90;99.90;;;;;;5058604;28;20242;-82
2021/10/09 01:21:45;;;;;;;266.13;247.80;;;8.80;99.90;;;;;;5059042;28;20516;-82
2021/10/09 01:24:11;;;;;;;305.92;286.75;;;8.80;99.90;;;;;;5057524;28;20219;-82
2021/10/09 01:26:38;;;;;;;296.25;277.65;;;8.90;99.90;;;;;;5057544;28;20200;-82
2021/10/09 01:29:06;;;;;;;298.85;279.33;;;8.90;99.90;;;;;;5039312;28;20288;-82
2021/10/09 01:31:32;;;;;;;307.17;287.17;;;9.00;99.90;;;;;;5056995;28;20516;-82
2021/10/09 01:33:58;;;;;;;276.95;258.95;;;9.00;99.90;;;;;;5057337;28;20176;-82
2021/10/09 01:36:29;;;;;;;298.50;278.70;;;8.80;99.90;;;;;;5039292;28;20232;-82
2021/10/09 01:38:55;;;;;;;291.10;272.50;;;8.80;99.90;;;;;;5039581;28;20207;-82
2021/10/09 01:41:21;;;;;;;330.57;310.07;;;8.80;99.90;;;;;;5039358;28;20169;-82
2021/10/09 01:43:47;;;;;;;286.13;267.20;;;8.70;99.90;;;;;;5056320;28;20165;-82
2021/10/09 01:46:13;;;;;;;287.90;268.77;;;8.60;99.90;;;;;;5057247;28;20173;-80
2021/10/09 01:48:40;;;;;;;264.50;246.10;;;8.60;99.90;;;;;;5056873;28;20539;-82
2021/10/09 01:51:07;;;;;;;251.82;234.68;;;8.50;99.90;;;;;;5056313;28;20438;-82
2021/10/09 01:53:34;;;;;;;249.32;232.05;;;8.50;99.90;;;;;;5057087;28;20210;-82
2021/10/09 01:56:00;;;;;;;244.45;227.07;;;8.40;99.90;;;;;;5056874;28;20165;-82
2021/10/09 01:58:26;;;;;;;248.53;230.70;;;8.40;99.90;;;;;;5039309;28;20192;-82
2021/10/09 02:00:52;;;;;;;236.93;220.05;;;8.30;99.90;;;;;;5057151;28;20407;-82
2021/10/09 02:03:20;;;;;;;246.07;229.10;;;8.30;99.90;;;;;;5039093;28;20655;-82
2021/10/09 02:05:46;;;;;;;256.27;238.13;;;8.30;99.90;;;;;;5057835;28;20161;-82
2021/10/09 02:08:12;;;;;;;241.07;224.15;;;8.30;99.90;;;;;;5058407;28;20184;-82
2021/10/09 02:10:48;;;;;;;236.27;219.18;;;8.30;99.90;;;;;;5039316;28;20164;-82
2021/10/09 02:13:17;;;;;;;229.30;212.73;;;8.30;99.90;;;;;;5039615;28;20170;-82
2021/10/09 02:15:49;;;;;;;245.70;228.85;;;8.30;99.90;;;;;;5121977;22;20576;-83
2021/10/09 02:18:27;;;;;;;242.48;225.57;;;8.20;99.90;;;;;;5056746;28;20184;-83
2021/10/09 02:28:44;;;;;;;246.93;230.32;;;8.00;99.90;;;;;;5269737;23;20220;-82
2021/10/09 02:31:10;;;;;;;225.40;209.40;;;7.90;99.90;;;;;;5018524;28;20230;-82
2021/10/09 02:33:35;;;;;;;222.93;207.13;;;7.80;99.90;;;;;;5037212;28;20256;-83
2021/10/09 02:36:01;;;;;;;239.70;222.20;;;7.80;99.90;;;;;;5037277;28;20622;-83
2021/10/09 02:38:27;;;;;;;195.87;180.27;;;7.80;99.90;;;;;;5035386;28;20185;-83
2021/10/09 02:40:53;;;;;;;214.93;199.37;;;7.70;99.90;;;;;;5019338;28;20499;-83
2021/10/09 02:43:19;;;;;;;236.82;220.75;;;7.70;99.90;;;;;;5038707;28;20859;-83
2021/10/09 02:45:44;;;;;;;203.17;187.77;;;7.70;99.90;;;;;;5038062;28;20244;-83
2021/10/09 02:48:10;;;;;;;237.03;220.87;;;7.70;99.90;;;;;;5036540;28;20203;-82
2021/10/09 02:50:36;;;;;;;251.00;234.03;;;7.70;99.90;;;;;;5019335;28;20173;-83
2021/10/09 02:53:02;;;;;;;236.03;219.77;;;7.60;99.90;;;;;;5036987;28;20403;-83
2021/10/09 02:55:28;;;;;;;214.35;198.52;;;7.60;99.90;;;;;;5036715;28;20184;-83
2021/10/09 02:57:53;;;;;;;215.80;200.23;;;7.50;99.90;;;;;;5041566;28;20193;-83
2021/10/09 03:00:21;;;;;;;199.97;184.70;;;7.50;99.90;;;;;;5040982;28;20540;-82
2021/10/09 03:02:46;;;;;;;255.48;238.07;;;7.60;99.90;;;;;;5041610;28;20172;-83
2021/10/09 03:05:13;;;;;;;252.43;235.80;;;7.50;99.90;;;;;;5041029;28;20157;-83
2021/10/09 03:07:40;;;;;;;197.77;182.52;;;7.60;99.90;;;;;;5040867;28;20192;-83
2021/10/09 03:10:07;;;;;;;214.35;198.55;;;7.50;99.90;;;;;;5024242;28;20260;-83
2021/10/09 03:12:33;;;;;;;228.85;212.50;;;7.50;99.90;;;;;;5041935;28;20180;-81
2021/10/09 03:14:59;;;;;;;224.97;209.03;;;7.50;99.90;;;;;;5040052;28;20166;-82
2021/10/09 03:17:25;;;;;;;217.25;200.70;;;7.50;99.90;;;;;;5039740;28;20196;-82
2021/10/09 03:19:51;;;;;;;201.52;186.20;;;7.50;99.90;;;;;;5039831;28;20196;-82
2021/10/09 03:22:17;;;;;;;216.20;200.07;;;7.40;99.90;;;;;;5040470;28;20188;-83
2021/10/09 03:24:43;;;;;;;233.50;216.53;;;7.40;99.90;;;;;;5039795;28;20161;-82
2021/10/09 03:27:08;;;;;;;210.03;194.30;;;7.40;99.90;;;;;;5039824;28;20189;-81
2021/10/09 03:29:34;;;;;;;202.40;187.17;;;7.40;99.90;;;;;;5039629;28;20187;-83
2021/10/09 03:32:00;;;;;;;245.83;228.50;;;7.30;99.90;;;;;;5039719;28;20173;-82
2021/10/09 03:34:29;;;;;;;238.00;221.23;;;7.20;99.90;;;;;;5039281;28;20158;-82
2021/10/09 03:36:54;;;;;;;207.57;191.95;;;7.20;99.90;;;;;;5039631;28;20525;-82
2021/10/09 03:39:21;;;;;;;212.90;196.70;;;7.20;99.90;;;;;;5039220;28;20189;-82
2021/10/09 03:41:55;;;;;;;219.25;203.32;;;7.30;99.90;;;;;;5039656;28;20157;-82
2021/10/09 03:44:21;;;;;;;192.25;176.98;;;7.30;99.90;;;;;;5021585;28;20176;-82
2021/10/09 03:47:00;;;;;;;213.63;197.90;;;7.20;99.90;;;;;;5038959;28;20162;-82
2021/10/09 03:49:41;;;;;;;214.07;197.93;;;7.10;99.90;;;;;;5039530;28;20185;-82
2021/10/09 03:52:35;;;;;;;224.35;208.45;;;7.10;99.90;;;;;;5022353;28;20528;-82
2021/10/09 03:55:03;;;;;;;214.00;197.68;;;7.10;99.90;;;;;;5039268;28;20150;-82
2021/10/09 03:57:29;;;;;;;227.45;210.60;;;7.10;99.90;;;;;;5039870;28;20227;-82
2021/10/09 03:59:54;;;;;;;259.07;242.03;;;7.00;99.90;;;;;;5021504;28;20205;-82
2021/10/09 04:02:20;;;;;;;225.50;209.10;;;7.10;99.90;;;;;;5039143;28;20165;-82
2021/10/09 04:04:46;;;;;;;200.60;185.60;;;7.10;99.90;;;;;;5038958;28;20514;-83
2021/10/09 04:07:11;;;;;;;209.83;193.80;;;7.00;99.90;;;;;;5038442;28;20185;-82
2021/10/09 04:09:37;;;;;;;196.77;181.17;;;7.10;99.90;;;;;;5038821;28;20169;-82
2021/10/09 04:12:03;;;;;;;210.13;194.57;;;7.00;99.90;;;;;;5038461;28;20165;-83
2021/10/09 04:14:28;;;;;;;225.93;210.17;;;6.90;99.90;;;;;;5038872;28;20231;-82
2021/10/09 04:16:54;;;;;;;227.43;211.43;;;6.90;99.90;;;;;;5039081;28;20407;-82
2021/10/09 04:19:20;;;;;;;206.93;191.73;;;6.90;99.90;;;;;;5021457;28;20660;-82
2021/10/09 04:21:46;;;;;;;238.43;221.70;;;6.90;99.90;;;;;;5020940;28;20245;-82
2021/10/09 04:24:15;;;;;;;222.07;205.90;;;6.80;99.90;;;;;;5038870;28;20179;-83
2021/10/09 04:26:40;;;;;;;212.50;196.82;;;6.90;99.90;;;;;;5021238;28;20161;-82
2021/10/09 04:29:06;;;;;;;220.53;204.53;;;6.80;99.90;;;;;;5039210;28;20183;-83
2021/10/09 04:31:31;;;;;;;205.80;190.37;;;6.80;99.90;;;;;;5020819;28;20255;-82
2021/10/09 04:33:57;;;;;;;201.77;186.47;;;6.80;99.90;;;;;;5039630;28;20173;-83
2021/10/09 04:36:23;;;;;;;205.80;190.17;;;6.80;99.90;;;;;;5021042;28;20169;-82
2021/10/09 04:38:48;;;;;;;234.17;217.93;;;6.80;99.90;;;;;;5039583;28;20190;-82
2021/10/09 04:41:14;;;;;;;222.97;207.07;;;6.80;99.90;;;;;;5021162;28;20165;-83
2021/10/09 04:43:39;;;;;;;250.87;233.97;;;6.70;99.90;;;;;;5038497;28;20189;-82
2021/10/09 04:46:05;;;;;;;220.30;204.77;;;6.70;99.90;;;;;;5038318;28;20165;-83
2021/10/09 04:48:31;;;;;;;214.57;199.20;;;6.70;99.90;;;;;;5038852;28;20178;-83
2021/10/09 04:50:58;;;;;;;213.83;198.40;;;6.70;99.90;;;;;;5038626;28;20161;-82
2021/10/09 04:53:23;;;;;;;209.63;193.80;;;6.70;99.90;;;;;;5038441;28;20208;-82
2021/10/09 04:55:49;;;;;;;226.27;210.40;;;6.70;99.90;;;;;;5038588;28;20161;-83
2021/10/09 04:58:15;;;;;;;229.37;213.57;;;6.60;99.90;;;;;;5037746;28;20181;-82
2021/10/09 05:00:40;;;;;;;226.37;210.50;;;6.60;99.90;;;;;;5038140;28;20189;-83
2021/10/09 05:03:06;;;;;;;206.13;190.50;;;6.50;99.90;;;;;;5038701;28;20193;-83
2021/10/09 05:05:32;;;;;;;265.63;248.73;;;6.60;99.90;;;;;;5038889;28;20530;-82
2021/10/09 05:07:57;;;;;;;222.90;207.33;;;6.50;99.90;;;;;;5020903;28;20188;-83
2021/10/09 05:10:25;;;;;;;226.97;211.40;;;6.50;99.90;;;;;;5038497;28;20161;-82
2021/10/09 05:12:51;;;;;;;233.45;217.27;;;6.50;99.90;;;;;;5037954;28;20161;-82
2021/10/09 05:15:17;;;;;;;235.63;219.73;;;6.40;99.90;;;;;;5020799;28;20196;-83
2021/10/09 05:17:43;;;;;;;235.33;219.40;;;6.40;99.90;;;;;;5038305;28;20857;-82
2021/10/09 05:20:09;;;;;;;224.17;208.03;;;6.40;99.90;;;;;;5020244;28;20310;-82
2021/10/09 05:22:35;;;;;;;233.32;217.02;;;6.40;99.90;;;;;;5039046;28;20201;-83
2021/10/09 05:25:02;;;;;;;227.60;211.45;;;6.40;99.90;;;;;;5021384;28;20165;-82
2021/10/09 05:27:28;;;;;;;238.50;221.20;;;6.40;99.90;;;;;;5038117;28;20189;-84
2021/10/09 05:29:54;;;;;;;270.25;252.43;;;6.40;99.90;;;;;;5037960;28;20671;-84
2021/10/09 05:32:24;;;;;;;242.50;225.93;;;6.40;99.90;;;;;;5019579;28;20173;-82
2021/10/09 05:34:50;;;;;;;276.00;258.40;;;6.40;99.90;;;;;;5019382;28;20514;-82
2021/10/09 05:37:16;;;;;;;243.03;225.90;;;6.40;99.90;;;;;;5037397;28;20200;-84
2021/10/09 05:39:41;;;;;;;225.73;208.83;;;6.50;99.90;;;;;;5037809;28;20189;-84
2021/10/09 05:42:07;;;;;;;210.03;193.67;;;6.40;99.90;;;;;;5019466;28;20176;-82
2021/10/09 05:44:32;;;;;;;212.60;196.73;;;6.40;99.90;;;;;;5037510;28;20162;-81
2021/10/09 05:46:58;;;;;;;224.30;207.70;;;6.40;99.90;;;;;;5037765;28;20161;-81
2021/10/09 05:49:24;;;;;;;231.83;214.90;;;6.50;99.90;;;;;;5020339;28;20166;-82
2021/10/09 05:52:04;;;;;;;237.40;221.07;;;6.40;99.90;;;;;;5019657;28;20188;-82
2021/10/09 05:54:36;;;;;;;205.15;189.38;;;6.40;99.90;;;;;;5037739;28;20156;-81
2021/10/09 06:37:48;;;;;;;263.10;244.88;;;6.50;99.90;;;;;;5037619;28;20192;-81
2021/10/09 06:59:28;;;;;;;263.10;245.60;;;7.00;99.90;;;;;;5038482;28;20153;-82
2021/10/09 07:01:44;;;;;;;305.50;286.27;;;7.10;99.90;;;;;;5039538;28;20176;-83
2021/10/09 07:04:10;;;;;;;342.98;321.70;;;7.20;99.90;;;;;;5021798;28;20169;-83
2021/10/09 07:06:35;;;;;;;302.70;283.90;;;7.20;99.90;;;;;;5020527;28;20170;-82
2021/10/09 07:09:01;;;;;;;382.80;360.50;;;7.30;99.90;;;;;;5036791;28;20188;-82
2021/10/09 07:11:27;;;;;;;339.23;319.03;;;7.30;99.90;;;;;;5019343;28;20200;-82
2021/10/09 07:13:52;;;;;;;363.30;341.97;;;7.40;99.90;;;;;;5036655;28;20711;-82
2021/10/09 07:16:18;;;;;;;383.93;360.73;;;7.50;99.90;;;;;;5036680;28;20686;-82
2021/10/09 07:18:44;;;;;;;424.10;399.30;;;7.50;99.90;;;;;;5019334;28;20195;-82
2021/10/09 07:21:09;;;;;;;368.03;345.90;;;7.60;99.90;;;;;;5037160;28;20170;-81
2021/10/09 07:23:35;;;;;;;362.03;340.10;;;7.80;99.90;;;;;;5037002;28;20177;-81
2021/10/09 07:26:01;;;;;;;387.10;364.10;;;7.90;99.90;;;;;;5018620;28;20176;-81
2021/10/09 07:28:26;;;;;;;422.97;397.17;;;8.10;99.90;;;;;;5019600;28;20576;-82
2021/10/09 07:30:52;;;;;;;465.93;439.00;;;8.30;99.90;;;;;;5036704;28;20272;-82
2021/10/09 07:33:17;;;;;;;465.90;439.07;;;8.40;99.90;;;;;;5036558;28;20165;-82
2021/10/09 07:35:43;;;;;;;458.13;431.93;;;8.50;99.90;;;;;;5036804;28;20169;-82
2021/10/09 07:38:11;;;;;;;445.43;419.57;;;8.60;99.90;;;;;;5037039;28;20189;-81
2021/10/09 07:40:36;;;;;;;455.05;428.20;;;8.70;99.90;;;;;;5019072;28;20728;-82
2021/10/09 07:43:02;;;;;;;429.63;405.03;;;8.80;99.90;;;;;;5039088;28;20197;-82
2021/10/09 07:45:28;;;;;;;413.53;388.73;;;8.90;99.90;;;;;;5041494;28;20225;-82
2021/10/09 07:47:53;;;;;;;452.07;426.40;;;9.00;99.90;;;;;;5024852;28;20192;-81
2021/10/09 07:50:19;;;;;;;435.27;409.33;;;9.10;99.90;;;;;;5040652;28;20640;-82
2021/10/09 07:52:44;;;;;;;428.53;402.57;;;9.20;99.90;;;;;;5040331;28;20169;-82
2021/10/09 07:55:10;;;;;;;449.77;423.17;;;9.20;99.90;;;;;;5039191;28;20165;-82
2021/10/09 07:57:37;;;;;;;433.80;408.23;;;9.30;99.90;;;;;;5040252;28;20271;-83
2021/10/09 08:00:04;;;;;;;422.60;397.55;;;9.40;99.90;;;;;;5043508;28;20802;-82
2021/10/09 08:02:32;;;;;;;457.25;430.20;;;9.40;99.90;;;;;;5041626;28;20189;-82
2021/10/09 08:04:57;;;;;;;383.77;360.42;;;9.40;99.90;;;;;;5039316;28;20174;-82
2021/10/09 08:07:23;;;;;;;419.13;394.60;;;9.50;99.90;;;;;;5021534;28;20185;-82
2021/10/09 08:09:49;;;;;;;384.53;361.23;;;9.50;99.90;;;;;;5039144;28;20647;-82
2021/10/09 08:12:14;;;;;;;377.20;354.23;;;9.60;99.90;;;;;;5038841;28;20219;-82
2021/10/09 08:14:40;;;;;;;344.53;322.73;;;9.70;99.90;;;;;;5020885;28;20165;-82
2021/10/09 08:17:06;;;;;;;316.67;295.67;;;9.70;99.90;;;;;;5038820;28;20181;-82
2021/10/09 08:19:31;;;;;;;306.00;285.80;;;9.80;99.90;;;;;;5039044;28;20271;-82
2021/10/09 08:22:01;;;;;;;298.63;278.27;;;9.90;99.90;;;;;;5039059;28;20158;-82
2021/10/09 08:24:33;;;;;;;275.10;256.15;;;10.00;99.90;;;;;;5038860;28;20157;-82
2021/10/09 08:40:55;;;;;;;294.88;275.85;;;10.40;99.90;;;;;;5037712;28;20560;-82
2021/10/09 08:43:21;;;;;;;287.27;268.50;;;10.50;99.90;;;;;;5020716;28;20161;-83
2021/10/09 08:45:46;;;;;;;325.15;304.63;;;10.60;99.90;;;;;;5037632;28;20577;-83
2021/10/09 08:48:12;;;;;;;368.30;346.40;;;10.60;99.90;;;;;;5038489;28;20343;-81
2021/10/09 08:50:38;;;;;;;366.57;344.97;;;10.60;99.90;;;;;;5037903;28;20165;-81
2021/10/09 08:53:10;;;;;;;399.33;376.80;;;10.60;99.90;;;;;;5020314;28;20419;-82
2021/10/09 08:55:38;;;;;;;428.33;403.90;;;10.70;99.90;;;;;;5020612;28;20628;-81
2021/10/09 08:58:08;;;;;;;402.05;377.27;;;10.70;1.00;;;;;;5037840;28;20620;-82
2021/10/09 09:00:48;;;;;;;426.23;401.70;;;10.80;99.90;;;;;;5020441;28;20279;-83
2021/10/09 09:03:18;;;;;;;456.40;430.50;;;10.80;99.90;;;;;;5038681;28;20141;-83
2021/10/09 09:39:39;;;;;;;288.55;268.83;;;12.10;93.30;;;;;;5036537;28;20272;-82
2021/10/09 09:42:05;;;;;;;246.75;228.68;;;12.20;92.80;;;;;;5018863;28;20207;-82
2021/10/09 09:44:32;;;;;;;148.18;132.65;;;12.30;1.00;;;;;;5036416;28;20204;-82
2021/10/09 09:47:01;;;;;;;107.47;78.10;;;12.40;1.00;;;;;;5036908;28;20158;-82
2021/10/09 09:49:28;;;;;;;100.63;58.88;;;12.50;1.00;;;;;;5019305;28;20173;-82
2021/10/09 09:51:55;;;;;;;109.05;62.55;;;12.60;1.00;;;;;;5037422;28;20161;-82
2021/10/09 09:54:26;;;;;;;121.78;107.47;;;12.70;1.00;;;;;;5038785;28;20596;-83
2021/10/09 09:56:59;;;;;;;126.57;113.47;;;12.80;1.00;;;;;;5020184;28;20165;-82
2021/10/09 09:59:33;;;;;;;124.72;111.80;;;13.00;1.00;;;;;;5038834;28;20181;-83
2021/10/09 10:02:08;;;;;;;136.32;123.38;;;13.10;1.00;;;;;;5019682;28;20563;-83
2021/10/09 10:04:35;;;;;;;114.10;101.00;;;13.20;1.00;;;;;;5037762;28;20149;-81
2021/10/09 10:07:02;;;;;;;104.00;71.60;;;13.50;1.00;;;;;;5036720;28;20428;-82
2021/10/09 10:09:30;;;;;;;104.60;70.70;;;13.50;1.00;;;;;;5038225;28;20644;-82
2021/10/09 10:12:01;;;;;;;97.20;46.72;;;13.60;1.00;;;;;;5020538;28;20428;-82
2021/10/09 10:14:28;;;;;;;96.57;53.00;;;13.70;1.00;;;;;;5038802;28;20165;-82
2021/10/09 10:16:58;;;;;;;94.93;43.57;;;13.80;1.00;;;;;;5019914;28;20404;-81
2021/10/09 10:19:48;;;;;;;92.50;41.73;;;13.90;1.00;;;;;;5020852;28;20797;-81
2021/10/09 10:22:14;;;;;;;92.83;43.57;;;13.90;1.00;;;;;;5019679;28;20408;-81
2021/10/09 10:24:46;;;;;;;92.10;39.03;;;13.90;1.00;;;;;;5037347;28;20402;-81
2021/10/09 10:27:47;;;;;;;;;;;;;;;;;;;;;
2021/10/09 10:30:25;;;;;;;93.83;41.93;;;14.00;1.00;;;;;;5057184;28;20913;-81
2021/10/09 10:37:03;;;;;;;88.37;36.57;;;14.40;1.00;;;;;;4994876;28;20867;-82
2021/10/09 10:43:04;;;;;;;;;;;;;;;;;;;;;
2021/10/09 10:45:42;;;;;;;88.27;36.60;;;14.80;1.00;;;;;;4908599;29;20499;-81
2021/10/09 10:48:30;;;;;;;93.70;48.33;;;15.10;1.00;;;;;;4920565;29;20457;-81
2021/10/09 10:53:47;;;;;;;124.13;111.37;;;15.40;1.00;;;;;;4958062;29;20407;-82
2021/10/09 10:56:25;;;;;;;118.53;97.73;;;15.30;1.00;;;;;;4957224;29;20180;-82
2021/10/09 11:06:45;;;;;;;90.87;35.73;;;15.40;1.00;;;;;;4977761;28;20383;-82
2021/10/09 11:09:37;;;;;;;;;;;;;;;;;;;;;
2021/10/09 11:12:42;;;;;;;85.47;24.13;;;16.00;1.00;;;;;;4978659;28;20478;-82
2021/10/09 11:15:19;;;;;;;84.00;25.27;;;16.20;1.00;;;;;;4976796;28;20459;-81
2021/10/09 11:21:00;;;;;;;83.77;27.13;;;16.40;1.00;;;;;;4972608;28;20978;-82
2021/10/09 11:23:48;;;;;;;95.27;52.70;;;16.50;1.00;;;;;;4979931;28;20389;-83
2021/10/09 11:31:00;;;;;;;82.00;24.77;;;17.00;1.00;;;;;;4964776;28;20560;-82
2021/10/09 11:33:52;;;;;;;87.30;30.00;;;16.90;1.00;;;;;;4915925;29;20508;-82
2021/10/09 11:36:50;;;;;;;84.30;32.57;;;17.20;1.00;;;;;;4884924;29;20574;-82
2021/10/09 11:39:44;;;;;;;99.03;63.13;;;17.50;1.00;;;;;;4944460;29;20955;-82
2021/10/09 11:42:53;;;;;;;94.33;50.07;;;17.40;1.00;;;;;;4960297;29;20408;-82
2021/10/09 11:45:38;;;;;;;98.03;49.83;;;17.60;1.00;;;;;;4958309;29;20520;-82
2021/10/09 11:54:36;;;;;;;91.70;40.63;;;17.80;1.00;;;;;;5040483;28;20383;-82
2021/10/09 11:57:26;;;;;;;87.80;44.80;;;17.70;1.00;;;;;;5040716;28;20412;-82
2021/10/09 12:00:19;;;;;;;88.23;44.47;;;17.50;1.00;;;;;;5040127;28;20770;-83
2021/10/09 12:06:52;;;;;;;85.40;40.77;;;17.70;1.00;;;;;;5020761;28;20400;-82
2021/10/09 12:12:47;;;;;;;95.80;63.17;;;18.40;1.00;;;;;;5040526;28;20376;-82
2021/10/09 12:19:01;;;;;;;102.03;90.83;;;18.00;1.00;;;;;;5042765;22;20489;-83
2021/10/09 12:21:57;;;;;;;111.70;100.03;;;17.90;1.00;;;;;;5060542;28;20755;-83
2021/10/09 12:24:54;;;;;;;131.67;118.67;;;18.00;1.00;;;;;;5051975;28;20960;-83
2021/10/09 12:27:35;;;;;;;105.90;87.50;;;17.90;99.90;;;;;;5017001;28;20919;-83
2021/10/09 12:30:12;;;;;;;100.73;66.17;;;17.60;99.90;;;;;;5042425;28;20459;-83
2021/10/09 12:32:49;;;;;;;106.13;94.60;;;17.30;99.90;;;;;;5042883;28;20399;-83
2021/10/09 12:35:58;;;;;;;119.60;107.47;;;17.50;99.90;;;;;;5060414;28;20371;-83
2021/10/09 12:38:38;;;;;;;113.73;102.20;;;17.70;1.00;;;;;;5059284;28;20514;-83
2021/10/09 12:41:15;;;;;;;122.20;110.07;;;17.70;99.90;;;;;;5059566;28;20445;-83
2021/10/09 12:43:41;;;;;;;95.40;62.90;;;18.00;1.00;;;;;;5060242;28;20885;-83
2021/10/09 12:46:10;;;;;;;88.20;57.90;;;18.00;99.90;;;;;;5059302;28;20411;-83
2021/10/09 12:48:47;;;;;;;121.63;109.83;;;17.90;99.90;;;;;;5059735;28;20559;-83
2021/10/09 12:51:13;;;;;;;108.20;96.90;;;17.80;99.90;;;;;;5042092;28;20482;-83
2021/10/09 12:53:39;;;;;;;95.20;75.03;;;17.80;99.90;;;;;;5059650;28;20431;-83
2021/10/09 12:56:08;;;;;;;114.80;103.23;;;17.70;99.90;;;;;;5059505;28;20160;-83
2021/10/09 12:58:34;;;;;;;130.90;118.57;;;17.60;99.90;;;;;;5041714;28;20431;-81
2021/10/09 13:00:59;;;;;;;101.47;87.33;;;17.60;99.90;;;;;;5058089;28;20398;-81
2021/10/09 13:03:25;;;;;;;116.30;104.87;;;17.70;99.90;;;;;;5126964;22;20494;-77
2021/10/09 13:05:51;;;;;;;118.53;106.73;;;17.50;99.90;;;;;;5054986;28;20207;-77
2021/10/09 13:08:16;;;;;;;117.63;105.93;;;17.50;99.90;;;;;;5055004;28;20196;-77
2021/10/09 13:10:47;;;;;;;100.90;84.60;;;17.50;99.90;;;;;;5036660;28;20578;-77
2021/10/09 13:13:13;;;;;;;115.57;103.80;;;17.60;99.90;;;;;;5036956;28;20223;-77
2021/10/09 13:15:38;;;;;;;119.70;107.87;;;17.60;99.90;;;;;;5054629;28;20886;-77
2021/10/09 13:18:04;;;;;;;100.70;85.43;;;17.60;99.90;;;;;;5036881;28;20185;-77
2021/10/09 13:20:32;;;;;;;104.80;92.77;;;17.70;99.90;;;;;;5054540;28;20203;-77
2021/10/09 13:22:59;;;;;;;121.90;109.67;;;17.70;99.90;;;;;;5054775;28;20188;-77
2021/10/09 13:25:24;;;;;;;111.73;100.20;;;17.50;99.90;;;;;;5054961;28;20441;-79
2021/10/09 13:27:53;;;;;;;116.97;104.97;;;17.50;1.00;;;;;;5057071;28;20462;-79
2021/10/09 13:30:18;;;;;;;95.03;69.33;;;17.60;99.90;;;;;;5057135;28;20269;-80
2021/10/09 13:32:44;;;;;;;94.03;65.23;;;17.60;99.90;;;;;;5056571;28;20970;-80
2021/10/09 13:35:15;;;;;;;87.07;52.33;;;17.50;99.90;;;;;;5056896;28;20184;-79
2021/10/09 13:37:53;;;;;;;94.07;73.37;;;17.40;99.90;;;;;;5038332;28;20189;-79
2021/10/09 13:40:19;;;;;;;112.20;100.60;;;17.40;99.90;;;;;;5055692;28;20411;-80
2021/10/09 13:42:48;;;;;;;110.20;98.80;;;17.40;99.90;;;;;;5056288;28;20486;-79
2021/10/09 13:45:14;;;;;;;91.17;60.97;;;17.40;99.90;;;;;;5056140;28;20422;-80
2021/10/09 13:47:41;;;;;;;136.27;123.97;;;17.50;99.90;;;;;;5056149;28;20454;-79
2021/10/09 13:50:11;;;;;;;134.90;122.50;;;17.50;99.90;;;;;;5056114;28;20866;-79
2021/10/09 13:52:37;;;;;;;94.13;71.93;;;17.50;99.90;;;;;;5038307;28;20411;-80
2021/10/09 13:55:03;;;;;;;87.30;49.53;;;17.50;99.90;;;;;;5056617;28;20898;-79
2021/10/09 13:57:28;;;;;;;87.80;52.87;;;17.50;99.90;;;;;;5056064;28;20188;-80
2021/10/09 13:59:54;;;;;;;88.00;53.10;;;17.40;99.90;;;;;;5056119;28;20222;-79
2021/10/09 14:02:21;;;;;;;100.40;82.57;;;17.40;99.90;;;;;;5056221;28;20193;-79
2021/10/09 14:04:46;;;;;;;121.97;110.07;;;17.40;99.90;;;;;;5037892;28;20241;-80
2021/10/09 14:07:12;;;;;;;114.30;102.77;;;17.40;99.90;;;;;;5055723;28;20514;-79
2021/10/09 14:09:41;;;;;;;99.80;84.47;;;17.40;99.90;;;;;;5055680;28;20200;-79
2021/10/09 14:12:06;;;;;;;118.30;106.50;;;17.40;99.90;;;;;;5055630;28;20169;-79
2021/10/09 14:14:35;;;;;;;99.97;85.20;;;17.40;99.90;;;;;;5055382;28;20410;-79
2021/10/09 14:17:00;;;;;;;96.30;84.07;;;17.50;99.90;;;;;;5037578;28;20203;-79
2021/10/09 14:19:26;;;;;;;87.80;55.17;;;17.40;99.90;;;;;;5037540;28;20411;-80
2021/10/09 14:21:56;;;;;;;109.63;97.60;;;17.30;99.90;;;;;;5055551;28;20172;-79
2021/10/09 14:24:22;;;;;;;132.03;119.60;;;17.40;99.90;;;;;;5037916;28;20177;-80
2021/10/09 14:26:48;;;;;;;181.63;166.50;;;17.30;99.90;;;;;;5037210;28;20456;-79
2021/10/09 14:29:13;;;;;;;155.67;142.33;;;17.40;99.90;;;;;;5037429;28;20583;-79
2021/10/09 14:31:39;;;;;;;205.93;190.43;;;17.40;99.90;;;;;;5037392;28;20415;-79
2021/10/09 14:34:05;;;;;;;124.70;113.03;;;17.40;99.90;;;;;;5055131;28;20164;-79
2021/10/09 14:36:31;;;;;;;122.63;110.97;;;17.50;99.90;;;;;;5054857;28;20862;-79
2021/10/09 14:38:56;;;;;;;91.67;62.47;;;17.60;99.90;;;;;;5054846;28;20680;-79
2021/10/09 14:41:23;;;;;;;93.00;65.90;;;17.60;99.90;;;;;;5055005;28;20536;-79
2021/10/09 14:43:48;;;;;;;107.47;96.03;;;17.70;99.90;;;;;;5055099;28;20198;-79
2021/10/09 14:49:32;;;;;;;85.87;47.37;;;17.90;99.90;;;;;;4993537;28;20632;-79
2021/10/09 15:19:16;;;;;;;90.03;67.53;;;18.00;99.90;;;;;;5058433;28;20921;-79
2021/10/09 15:21:42;;;;;;;91.97;57.50;;;18.10;99.90;;;;;;5058372;28;20404;-79
2021/10/09 15:24:11;;;;;;;90.77;65.47;;;18.10;99.90;;;;;;5058805;28;20684;-79
2021/10/09 15:26:37;;;;;;;131.63;119.17;;;18.10;99.90;;;;;;5058729;28;20172;-79
2021/10/09 15:29:06;;;;;;;81.60;44.47;;;18.20;99.90;;;;;;5058323;28;20484;-80
2021/10/09 15:31:32;;;;;;;78.40;32.20;;;18.20;99.90;;;;;;5041041;28;20175;-80
2021/10/09 15:33:57;;;;;;;87.43;60.47;;;18.20;99.90;;;;;;5040900;28;20910;-80
2021/10/09 15:36:23;;;;;;;86.50;49.63;;;18.20;99.90;;;;;;5040764;28;20215;-80
2021/10/09 15:38:52;;;;;;;91.70;70.03;;;18.00;99.90;;;;;;5058090;28;20544;-80
2021/10/09 15:41:17;;;;;;;93.50;73.27;;;18.10;99.90;;;;;;5058723;28;20164;-80
2021/10/09 15:43:43;;;;;;;93.33;73.50;;;18.00;99.90;;;;;;5058513;28;20933;-80